sensor_id;sensor_type;location;lat;lon;timestamp;P1;durP1;ratioP1;P2;durP2;ratioP2
77798;SDS011;66989;50.426;15.352;2023-10-19T00:01:14;16.85;;;8.48;;
77798;SDS011;66989;50.426;15.352;2023-10-19T00:03:40;9.48;;;6.00;;
77798;SDS011;66989;50.426;15.352;2023-10-19T00:06:06;10.23;;;6.00;;
77798;SDS011;66989;50.426;15.352;2023-10-19T00:08:32;11.40;;;5.45;;
77798;SDS011;66989;50.426;15.352;2023-10-19T00:11:07;11.85;;;7.07;;
77798;SDS011;66989;50.426;15.352;2023-10-19T00:13:46;12.02;;;6.20;;
77798;SDS011;66989;50.426;15.352;2023-10-19T00:16:15;8.73;;;5.43;;
77798;SDS011;66989;50.426;15.352;2023-10-19T00:18:48;9.93;;;6.50;;
77798;SDS011;66989;50.426;15.352;2023-10-19T00:21:15;10.98;;;6.82;;
77798;SDS011;66989;50.426;15.352;2023-10-19T00:23:45;9.90;;;6.88;;
77798;SDS011;66989;50.426;15.352;2023-10-19T00:26:16;12.18;;;6.88;;
77798;SDS011;66989;50.426;15.352;2023-10-19T00:28:48;12.38;;;7.47;;
77798;SDS011;66989;50.426;15.352;2023-10-19T00:31:18;12.85;;;7.50;;
77798;SDS011;66989;50.426;15.352;2023-10-19T00:33:45;10.98;;;6.78;;
77798;SDS011;66989;50.426;15.352;2023-10-19T00:36:11;13.60;;;7.00;;
77798;SDS011;66989;50.426;15.352;2023-10-19T00:38:41;9.40;;;6.50;;
77798;SDS011;66989;50.426;15.352;2023-10-19T00:41:23;13.32;;;7.43;;
77798;SDS011;66989;50.426;15.352;2023-10-19T00:43:52;11.82;;;6.57;;
77798;SDS011;66989;50.426;15.352;2023-10-19T00:46:36;10.40;;;6.50;;
77798;SDS011;66989;50.426;15.352;2023-10-19T00:49:08;11.48;;;6.35;;
77798;SDS011;66989;50.426;15.352;2023-10-19T00:51:38;11.40;;;6.60;;
77798;SDS011;66989;50.426;15.352;2023-10-19T00:54:13;10.68;;;6.70;;
77798;SDS011;66989;50.426;15.352;2023-10-19T00:56:47;9.68;;;7.13;;
77798;SDS011;66989;50.426;15.352;2023-10-19T00:59:20;11.18;;;6.30;;
77798;SDS011;66989;50.426;15.352;2023-10-19T01:01:45;15.02;;;7.82;;
77798;SDS011;66989;50.426;15.352;2023-10-19T01:04:13;13.75;;;6.47;;
77798;SDS011;66989;50.426;15.352;2023-10-19T01:06:40;8.90;;;6.28;;
77798;SDS011;66989;50.426;15.352;2023-10-19T01:09:12;13.25;;;7.18;;
77798;SDS011;66989;50.426;15.352;2023-10-19T01:11:40;11.00;;;5.90;;
77798;SDS011;66989;50.426;15.352;2023-10-19T01:14:18;9.25;;;5.90;;
77798;SDS011;66989;50.426;15.352;2023-10-19T01:16:46;11.00;;;6.22;;
77798;SDS011;66989;50.426;15.352;2023-10-19T01:19:13;11.85;;;6.13;;
77798;SDS011;66989;50.426;15.352;2023-10-19T01:21:43;9.38;;;6.00;;
77798;SDS011;66989;50.426;15.352;2023-10-19T01:24:11;11.55;;;6.18;;
77798;SDS011;66989;50.426;15.352;2023-10-19T01:26:41;9.43;;;6.28;;
77798;SDS011;66989;50.426;15.352;2023-10-19T01:29:07;9.45;;;6.25;;
77798;SDS011;66989;50.426;15.352;2023-10-19T01:31:41;12.32;;;6.30;;
77798;SDS011;66989;50.426;15.352;2023-10-19T01:34:30;10.98;;;5.93;;
77798;SDS011;66989;50.426;15.352;2023-10-19T01:36:55;11.23;;;6.05;;
77798;SDS011;66989;50.426;15.352;2023-10-19T01:39:21;8.48;;;5.35;;
77798;SDS011;66989;50.426;15.352;2023-10-19T01:41:46;10.68;;;6.53;;
77798;SDS011;66989;50.426;15.352;2023-10-19T01:44:11;11.43;;;6.47;;
77798;SDS011;66989;50.426;15.352;2023-10-19T01:46:41;11.18;;;6.68;;
77798;SDS011;66989;50.426;15.352;2023-10-19T01:49:09;12.38;;;7.15;;
77798;SDS011;66989;50.426;15.352;2023-10-19T01:51:35;10.30;;;7.95;;
77798;SDS011;66989;50.426;15.352;2023-10-19T01:54:05;11.35;;;6.45;;
77798;SDS011;66989;50.426;15.352;2023-10-19T01:56:31;10.32;;;6.40;;
77798;SDS011;66989;50.426;15.352;2023-10-19T01:59:00;12.38;;;7.85;;
77798;SDS011;66989;50.426;15.352;2023-10-19T02:01:26;10.93;;;5.97;;
77798;SDS011;66989;50.426;15.352;2023-10-19T02:03:52;12.60;;;6.68;;
77798;SDS011;66989;50.426;15.352;2023-10-19T02:06:20;12.32;;;7.47;;
77798;SDS011;66989;50.426;15.352;2023-10-19T02:08:48;10.48;;;6.13;;
77798;SDS011;66989;50.426;15.352;2023-10-19T02:11:16;13.40;;;6.18;;
77798;SDS011;66989;50.426;15.352;2023-10-19T02:13:45;8.43;;;5.88;;
77798;SDS011;66989;50.426;15.352;2023-10-19T02:16:17;9.77;;;6.03;;
77798;SDS011;66989;50.426;15.352;2023-10-19T02:18:56;13.23;;;6.78;;
77798;SDS011;66989;50.426;15.352;2023-10-19T02:21:21;12.32;;;6.97;;
77798;SDS011;66989;50.426;15.352;2023-10-19T02:23:48;12.43;;;6.65;;
77798;SDS011;66989;50.426;15.352;2023-10-19T02:26:15;15.35;;;6.30;;
77798;SDS011;66989;50.426;15.352;2023-10-19T02:28:41;9.90;;;5.63;;
77798;SDS011;66989;50.426;15.352;2023-10-19T02:31:09;11.13;;;5.90;;
77798;SDS011;66989;50.426;15.352;2023-10-19T02:33:41;10.93;;;6.75;;
77798;SDS011;66989;50.426;15.352;2023-10-19T02:36:11;9.68;;;6.80;;
77798;SDS011;66989;50.426;15.352;2023-10-19T02:38:40;11.00;;;5.65;;
77798;SDS011;66989;50.426;15.352;2023-10-19T02:41:09;9.45;;;5.80;;
77798;SDS011;66989;50.426;15.352;2023-10-19T02:43:35;10.55;;;5.95;;
77798;SDS011;66989;50.426;15.352;2023-10-19T02:46:01;11.02;;;6.82;;
77798;SDS011;66989;50.426;15.352;2023-10-19T02:48:28;10.05;;;6.20;;
77798;SDS011;66989;50.426;15.352;2023-10-19T02:50:53;11.43;;;6.55;;
77798;SDS011;66989;50.426;15.352;2023-10-19T02:53:19;11.20;;;7.57;;
77798;SDS011;66989;50.426;15.352;2023-10-19T02:55:44;11.30;;;6.33;;
77798;SDS011;66989;50.426;15.352;2023-10-19T02:58:09;8.77;;;6.07;;
77798;SDS011;66989;50.426;15.352;2023-10-19T03:00:39;10.48;;;6.18;;
77798;SDS011;66989;50.426;15.352;2023-10-19T03:03:05;11.65;;;6.13;;
77798;SDS011;66989;50.426;15.352;2023-10-19T03:05:31;10.57;;;6.50;;
77798;SDS011;66989;50.426;15.352;2023-10-19T03:07:57;8.27;;;5.68;;
77798;SDS011;66989;50.426;15.352;2023-10-19T03:10:22;11.10;;;6.75;;
77798;SDS011;66989;50.426;15.352;2023-10-19T03:13:03;10.68;;;6.70;;
77798;SDS011;66989;50.426;15.352;2023-10-19T03:15:29;10.50;;;6.88;;
77798;SDS011;66989;50.426;15.352;2023-10-19T03:17:58;10.63;;;6.68;;
77798;SDS011;66989;50.426;15.352;2023-10-19T03:20:23;12.18;;;6.80;;
77798;SDS011;66989;50.426;15.352;2023-10-19T03:22:50;11.07;;;6.80;;
77798;SDS011;66989;50.426;15.352;2023-10-19T03:25:16;11.68;;;6.47;;
77798;SDS011;66989;50.426;15.352;2023-10-19T03:28:00;10.27;;;6.28;;
77798;SDS011;66989;50.426;15.352;2023-10-19T03:30:44;10.77;;;6.85;;
77798;SDS011;66989;50.426;15.352;2023-10-19T03:33:12;10.38;;;6.47;;
77798;SDS011;66989;50.426;15.352;2023-10-19T03:35:38;11.18;;;7.05;;
77798;SDS011;66989;50.426;15.352;2023-10-19T03:38:06;10.20;;;5.63;;
77798;SDS011;66989;50.426;15.352;2023-10-19T03:40:44;11.00;;;7.47;;
77798;SDS011;66989;50.426;15.352;2023-10-19T03:43:17;11.30;;;6.15;;
77798;SDS011;66989;50.426;15.352;2023-10-19T03:45:46;15.07;;;8.73;;
77798;SDS011;66989;50.426;15.352;2023-10-19T03:48:18;12.40;;;7.45;;
77798;SDS011;66989;50.426;15.352;2023-10-19T03:50:51;12.60;;;7.35;;
77798;SDS011;66989;50.426;15.352;2023-10-19T03:53:18;12.35;;;6.80;;
77798;SDS011;66989;50.426;15.352;2023-10-19T03:55:46;14.55;;;8.25;;
77798;SDS011;66989;50.426;15.352;2023-10-19T03:58:12;12.00;;;6.80;;
77798;SDS011;66989;50.426;15.352;2023-10-19T04:00:37;10.35;;;6.43;;
77798;SDS011;66989;50.426;15.352;2023-10-19T04:03:03;10.25;;;6.55;;
77798;SDS011;66989;50.426;15.352;2023-10-19T04:05:29;10.30;;;6.65;;
77798;SDS011;66989;50.426;15.352;2023-10-19T04:10:22;11.23;;;6.55;;
77798;SDS011;66989;50.426;15.352;2023-10-19T04:13:00;10.45;;;7.75;;
77798;SDS011;66989;50.426;15.352;2023-10-19T04:15:26;11.00;;;7.80;;
77798;SDS011;66989;50.426;15.352;2023-10-19T04:17:54;13.73;;;6.53;;
77798;SDS011;66989;50.426;15.352;2023-10-19T04:20:20;9.38;;;5.95;;
77798;SDS011;66989;50.426;15.352;2023-10-19T04:22:49;9.40;;;6.57;;
77798;SDS011;66989;50.426;15.352;2023-10-19T04:25:15;12.15;;;7.85;;
77798;SDS011;66989;50.426;15.352;2023-10-19T04:27:43;12.13;;;7.05;;
77798;SDS011;66989;50.426;15.352;2023-10-19T04:30:09;12.05;;;6.93;;
77798;SDS011;66989;50.426;15.352;2023-10-19T04:32:46;11.15;;;7.10;;
77798;SDS011;66989;50.426;15.352;2023-10-19T04:35:12;19.92;;;8.52;;
77798;SDS011;66989;50.426;15.352;2023-10-19T04:37:45;12.63;;;6.93;;
77798;SDS011;66989;50.426;15.352;2023-10-19T04:40:11;13.63;;;6.72;;
77798;SDS011;66989;50.426;15.352;2023-10-19T04:42:40;12.60;;;6.35;;
77798;SDS011;66989;50.426;15.352;2023-10-19T04:45:07;12.68;;;6.90;;
77798;SDS011;66989;50.426;15.352;2023-10-19T04:47:34;11.65;;;7.05;;
77798;SDS011;66989;50.426;15.352;2023-10-19T04:50:04;10.48;;;7.13;;
77798;SDS011;66989;50.426;15.352;2023-10-19T04:52:31;15.00;;;7.13;;
77798;SDS011;66989;50.426;15.352;2023-10-19T04:54:57;12.38;;;7.10;;
77798;SDS011;66989;50.426;15.352;2023-10-19T04:57:24;11.18;;;7.38;;
77798;SDS011;66989;50.426;15.352;2023-10-19T04:59:50;14.20;;;8.70;;
77798;SDS011;66989;50.426;15.352;2023-10-19T05:02:15;17.13;;;8.18;;
77798;SDS011;66989;50.426;15.352;2023-10-19T05:04:41;14.35;;;7.80;;
77798;SDS011;66989;50.426;15.352;2023-10-19T05:07:08;16.88;;;7.72;;
77798;SDS011;66989;50.426;15.352;2023-10-19T05:09:37;12.07;;;6.90;;
77798;SDS011;66989;50.426;15.352;2023-10-19T05:12:05;13.27;;;7.65;;
77798;SDS011;66989;50.426;15.352;2023-10-19T05:14:34;12.02;;;7.45;;
77798;SDS011;66989;50.426;15.352;2023-10-19T05:17:03;10.93;;;7.57;;
77798;SDS011;66989;50.426;15.352;2023-10-19T05:19:30;14.80;;;8.35;;
77798;SDS011;66989;50.426;15.352;2023-10-19T05:22:00;15.88;;;8.48;;
77798;SDS011;66989;50.426;15.352;2023-10-19T05:24:26;12.32;;;7.93;;
77798;SDS011;66989;50.426;15.352;2023-10-19T05:26:52;12.07;;;7.65;;
77798;SDS011;66989;50.426;15.352;2023-10-19T05:29:21;14.85;;;7.68;;
77798;SDS011;66989;50.426;15.352;2023-10-19T05:31:47;13.95;;;9.15;;
77798;SDS011;66989;50.426;15.352;2023-10-19T05:34:18;12.10;;;8.18;;
77798;SDS011;66989;50.426;15.352;2023-10-19T05:36:46;14.23;;;8.73;;
77798;SDS011;66989;50.426;15.352;2023-10-19T05:39:14;19.20;;;9.85;;
77798;SDS011;66989;50.426;15.352;2023-10-19T05:41:40;14.10;;;8.43;;
77798;SDS011;66989;50.426;15.352;2023-10-19T05:44:05;11.55;;;7.97;;
77798;SDS011;66989;50.426;15.352;2023-10-19T05:46:30;15.50;;;8.93;;
77798;SDS011;66989;50.426;15.352;2023-10-19T05:48:56;14.10;;;8.70;;
77798;SDS011;66989;50.426;15.352;2023-10-19T05:51:22;13.63;;;8.52;;
77798;SDS011;66989;50.426;15.352;2023-10-19T05:53:48;17.90;;;8.13;;
77798;SDS011;66989;50.426;15.352;2023-10-19T05:56:14;16.77;;;8.82;;
77798;SDS011;66989;50.426;15.352;2023-10-19T05:58:42;14.25;;;10.38;;
77798;SDS011;66989;50.426;15.352;2023-10-19T06:01:07;12.85;;;8.10;;
77798;SDS011;66989;50.426;15.352;2023-10-19T06:03:33;11.95;;;8.88;;
77798;SDS011;66989;50.426;15.352;2023-10-19T06:05:58;14.57;;;8.50;;
77798;SDS011;66989;50.426;15.352;2023-10-19T06:08:23;14.35;;;8.55;;
77798;SDS011;66989;50.426;15.352;2023-10-19T06:10:52;15.03;;;8.80;;
77798;SDS011;66989;50.426;15.352;2023-10-19T06:13:18;12.75;;;9.38;;
77798;SDS011;66989;50.426;15.352;2023-10-19T06:15:43;15.55;;;9.52;;
77798;SDS011;66989;50.426;15.352;2023-10-19T06:18:09;15.80;;;8.95;;
77798;SDS011;66989;50.426;15.352;2023-10-19T06:20:35;18.58;;;8.88;;
77798;SDS011;66989;50.426;15.352;2023-10-19T06:23:01;16.85;;;8.75;;
77798;SDS011;66989;50.426;15.352;2023-10-19T06:25:31;14.43;;;8.90;;
77798;SDS011;66989;50.426;15.352;2023-10-19T06:28:00;12.15;;;8.07;;
77798;SDS011;66989;50.426;15.352;2023-10-19T06:30:26;15.07;;;8.93;;
77798;SDS011;66989;50.426;15.352;2023-10-19T06:32:53;16.35;;;9.77;;
77798;SDS011;66989;50.426;15.352;2023-10-19T06:35:20;15.02;;;9.25;;
77798;SDS011;66989;50.426;15.352;2023-10-19T06:37:46;16.52;;;9.25;;
77798;SDS011;66989;50.426;15.352;2023-10-19T06:40:12;18.08;;;11.23;;
77798;SDS011;66989;50.426;15.352;2023-10-19T06:42:42;14.32;;;9.45;;
77798;SDS011;66989;50.426;15.352;2023-10-19T06:45:11;16.23;;;9.80;;
77798;SDS011;66989;50.426;15.352;2023-10-19T06:47:41;13.85;;;9.40;;
77798;SDS011;66989;50.426;15.352;2023-10-19T06:50:07;17.75;;;10.10;;
77798;SDS011;66989;50.426;15.352;2023-10-19T06:52:35;15.25;;;9.35;;
77798;SDS011;66989;50.426;15.352;2023-10-19T06:55:04;14.90;;;9.35;;
77798;SDS011;66989;50.426;15.352;2023-10-19T06:57:31;17.27;;;9.75;;
77798;SDS011;66989;50.426;15.352;2023-10-19T06:59:58;16.27;;;9.50;;
77798;SDS011;66989;50.426;15.352;2023-10-19T07:02:24;15.55;;;8.93;;
77798;SDS011;66989;50.426;15.352;2023-10-19T07:04:49;17.67;;;11.75;;
77798;SDS011;66989;50.426;15.352;2023-10-19T07:07:15;17.33;;;9.17;;
77798;SDS011;66989;50.426;15.352;2023-10-19T07:09:40;16.85;;;9.57;;
77798;SDS011;66989;50.426;15.352;2023-10-19T07:12:06;14.40;;;9.15;;
77798;SDS011;66989;50.426;15.352;2023-10-19T07:14:33;15.02;;;9.93;;
77798;SDS011;66989;50.426;15.352;2023-10-19T07:16:58;15.88;;;9.70;;
77798;SDS011;66989;50.426;15.352;2023-10-19T07:19:24;16.05;;;9.75;;
77798;SDS011;66989;50.426;15.352;2023-10-19T07:21:50;17.48;;;11.02;;
77798;SDS011;66989;50.426;15.352;2023-10-19T07:24:22;14.73;;;9.50;;
77798;SDS011;66989;50.426;15.352;2023-10-19T07:26:49;16.38;;;10.48;;
77798;SDS011;66989;50.426;15.352;2023-10-19T07:29:32;14.88;;;9.60;;
77798;SDS011;66989;50.426;15.352;2023-10-19T07:31:58;22.42;;;12.35;;
77798;SDS011;66989;50.426;15.352;2023-10-19T07:34:24;16.92;;;10.38;;
77798;SDS011;66989;50.426;15.352;2023-10-19T07:36:54;16.83;;;10.10;;
77798;SDS011;66989;50.426;15.352;2023-10-19T07:39:20;15.15;;;10.05;;
77798;SDS011;66989;50.426;15.352;2023-10-19T07:41:45;16.42;;;10.65;;
77798;SDS011;66989;50.426;15.352;2023-10-19T07:44:11;16.88;;;10.77;;
77798;SDS011;66989;50.426;15.352;2023-10-19T07:46:37;17.40;;;11.15;;
77798;SDS011;66989;50.426;15.352;2023-10-19T07:49:02;18.27;;;11.30;;
77798;SDS011;66989;50.426;15.352;2023-10-19T07:51:28;16.90;;;11.65;;
77798;SDS011;66989;50.426;15.352;2023-10-19T07:53:55;19.15;;;11.85;;
77798;SDS011;66989;50.426;15.352;2023-10-19T07:56:21;19.35;;;11.85;;
77798;SDS011;66989;50.426;15.352;2023-10-19T07:58:48;21.67;;;11.20;;
77798;SDS011;66989;50.426;15.352;2023-10-19T08:01:14;18.40;;;12.68;;
77798;SDS011;66989;50.426;15.352;2023-10-19T08:03:40;17.52;;;11.05;;
77798;SDS011;66989;50.426;15.352;2023-10-19T08:06:05;16.15;;;10.45;;
77798;SDS011;66989;50.426;15.352;2023-10-19T08:08:30;16.08;;;10.57;;
77798;SDS011;66989;50.426;15.352;2023-10-19T08:10:59;16.52;;;11.00;;
77798;SDS011;66989;50.426;15.352;2023-10-19T08:13:25;17.58;;;13.40;;
77798;SDS011;66989;50.426;15.352;2023-10-19T08:15:51;19.30;;;12.52;;
77798;SDS011;66989;50.426;15.352;2023-10-19T08:18:17;17.48;;;10.45;;
77798;SDS011;66989;50.426;15.352;2023-10-19T08:20:43;21.83;;;11.82;;
77798;SDS011;66989;50.426;15.352;2023-10-19T08:23:14;17.92;;;12.23;;
77798;SDS011;66989;50.426;15.352;2023-10-19T08:25:41;20.17;;;11.57;;
77798;SDS011;66989;50.426;15.352;2023-10-19T08:28:07;18.60;;;11.98;;
77798;SDS011;66989;50.426;15.352;2023-10-19T08:30:32;17.90;;;11.40;;
77798;SDS011;66989;50.426;15.352;2023-10-19T08:37:50;18.23;;;11.60;;
77798;SDS011;66989;50.426;15.352;2023-10-19T08:40:19;19.45;;;12.48;;
77798;SDS011;66989;50.426;15.352;2023-10-19T08:42:46;24.08;;;15.15;;
77798;SDS011;66989;50.426;15.352;2023-10-19T08:45:13;20.80;;;14.05;;
77798;SDS011;66989;50.426;15.352;2023-10-19T08:47:53;19.35;;;12.32;;
77798;SDS011;66989;50.426;15.352;2023-10-19T08:50:26;20.48;;;13.15;;
77798;SDS011;66989;50.426;15.352;2023-10-19T08:55:22;20.58;;;13.48;;
77798;SDS011;66989;50.426;15.352;2023-10-19T08:57:48;24.13;;;13.77;;
77798;SDS011;66989;50.426;15.352;2023-10-19T09:00:15;24.55;;;13.55;;
77798;SDS011;66989;50.426;15.352;2023-10-19T09:02:47;19.48;;;13.85;;
77798;SDS011;66989;50.426;15.352;2023-10-19T09:05:13;28.90;;;15.27;;
77798;SDS011;66989;50.426;15.352;2023-10-19T09:07:47;19.02;;;12.63;;
77798;SDS011;66989;50.426;15.352;2023-10-19T09:10:23;22.58;;;14.18;;
77798;SDS011;66989;50.426;15.352;2023-10-19T09:13:04;24.55;;;15.23;;
77798;SDS011;66989;50.426;15.352;2023-10-19T09:15:35;21.05;;;13.73;;
77798;SDS011;66989;50.426;15.352;2023-10-19T09:18:20;22.58;;;15.30;;
77798;SDS011;66989;50.426;15.352;2023-10-19T09:20:48;24.25;;;15.23;;
77798;SDS011;66989;50.426;15.352;2023-10-19T09:23:33;22.67;;;14.63;;
77798;SDS011;66989;50.426;15.352;2023-10-19T09:26:01;20.83;;;13.27;;
77798;SDS011;66989;50.426;15.352;2023-10-19T09:28:28;20.33;;;14.13;;
77798;SDS011;66989;50.426;15.352;2023-10-19T09:30:54;27.80;;;15.60;;
77798;SDS011;66989;50.426;15.352;2023-10-19T09:33:20;21.02;;;14.32;;
77798;SDS011;66989;50.426;15.352;2023-10-19T09:35:47;22.50;;;13.95;;
77798;SDS011;66989;50.426;15.352;2023-10-19T09:38:17;22.02;;;14.23;;
77798;SDS011;66989;50.426;15.352;2023-10-19T09:40:52;23.13;;;15.55;;
77798;SDS011;66989;50.426;15.352;2023-10-19T09:46:08;24.50;;;14.23;;
77798;SDS011;66989;50.426;15.352;2023-10-19T09:48:40;22.00;;;14.68;;
77798;SDS011;66989;50.426;15.352;2023-10-19T09:51:07;20.08;;;13.70;;
77798;SDS011;66989;50.426;15.352;2023-10-19T09:58:31;22.52;;;14.68;;
77798;SDS011;66989;50.426;15.352;2023-10-19T10:06:56;22.25;;;13.38;;
77798;SDS011;66989;50.426;15.352;2023-10-19T10:09:19;20.90;;;14.88;;
77798;SDS011;66989;50.426;15.352;2023-10-19T10:11:48;20.08;;;13.20;;
77798;SDS011;66989;50.426;15.352;2023-10-19T10:14:24;21.80;;;14.35;;
77798;SDS011;66989;50.426;15.352;2023-10-19T10:17:03;18.67;;;13.38;;
77798;SDS011;66989;50.426;15.352;2023-10-19T10:19:30;23.10;;;13.30;;
77798;SDS011;66989;50.426;15.352;2023-10-19T10:22:08;23.80;;;14.80;;
77798;SDS011;66989;50.426;15.352;2023-10-19T10:24:40;21.20;;;14.48;;
77798;SDS011;66989;50.426;15.352;2023-10-19T10:27:06;20.17;;;13.30;;
77798;SDS011;66989;50.426;15.352;2023-10-19T10:29:33;20.15;;;13.15;;
77798;SDS011;66989;50.426;15.352;2023-10-19T10:31:58;22.92;;;15.02;;
77798;SDS011;66989;50.426;15.352;2023-10-19T10:37:03;21.05;;;15.18;;
77798;SDS011;66989;50.426;15.352;2023-10-19T10:39:36;22.77;;;14.35;;
77798;SDS011;66989;50.426;15.352;2023-10-19T10:42:03;21.85;;;15.07;;
77798;SDS011;66989;50.426;15.352;2023-10-19T10:44:36;22.92;;;16.98;;
77798;SDS011;66989;50.426;15.352;2023-10-19T10:47:06;23.60;;;15.80;;
77798;SDS011;66989;50.426;15.352;2023-10-19T10:49:33;28.85;;;15.85;;
77798;SDS011;66989;50.426;15.352;2023-10-19T10:51:59;22.55;;;15.48;;
77798;SDS011;66989;50.426;15.352;2023-10-19T10:54:24;23.53;;;18.03;;
77798;SDS011;66989;50.426;15.352;2023-10-19T10:56:49;26.60;;;17.25;;
77798;SDS011;66989;50.426;15.352;2023-10-19T10:59:15;23.52;;;17.00;;
77798;SDS011;66989;50.426;15.352;2023-10-19T11:01:40;25.52;;;16.40;;
77798;SDS011;66989;50.426;15.352;2023-10-19T11:04:10;26.60;;;17.77;;
77798;SDS011;66989;50.426;15.352;2023-10-19T11:09:48;23.52;;;16.23;;
77798;SDS011;66989;50.426;15.352;2023-10-19T11:12:14;19.60;;;14.43;;
77798;SDS011;66989;50.426;15.352;2023-10-19T11:14:57;20.95;;;15.25;;
77798;SDS011;66989;50.426;15.352;2023-10-19T11:17:41;19.80;;;13.95;;
77798;SDS011;66989;50.426;15.352;2023-10-19T11:22:34;23.40;;;14.48;;
77798;SDS011;66989;50.426;15.352;2023-10-19T11:25:20;25.58;;;17.27;;
77798;SDS011;66989;50.426;15.352;2023-10-19T11:27:51;19.58;;;13.10;;
77798;SDS011;66989;50.426;15.352;2023-10-19T11:30:24;21.55;;;15.48;;
77798;SDS011;66989;50.426;15.352;2023-10-19T11:32:53;20.52;;;15.85;;
77798;SDS011;66989;50.426;15.352;2023-10-19T11:35:26;23.35;;;15.65;;
77798;SDS011;66989;50.426;15.352;2023-10-19T11:37:55;23.00;;;14.88;;
77798;SDS011;66989;50.426;15.352;2023-10-19T11:40:22;20.75;;;14.57;;
77798;SDS011;66989;50.426;15.352;2023-10-19T11:42:48;23.05;;;16.27;;
77798;SDS011;66989;50.426;15.352;2023-10-19T11:45:15;19.13;;;14.68;;
77798;SDS011;66989;50.426;15.352;2023-10-19T11:47:42;21.17;;;13.90;;
77798;SDS011;66989;50.426;15.352;2023-10-19T11:50:08;18.77;;;14.52;;
77798;SDS011;66989;50.426;15.352;2023-10-19T11:52:37;19.48;;;13.93;;
77798;SDS011;66989;50.426;15.352;2023-10-19T11:55:02;21.67;;;15.00;;
77798;SDS011;66989;50.426;15.352;2023-10-19T11:57:30;19.08;;;14.82;;
77798;SDS011;66989;50.426;15.352;2023-10-19T11:59:55;21.52;;;14.50;;
77798;SDS011;66989;50.426;15.352;2023-10-19T12:02:22;20.83;;;15.35;;
77798;SDS011;66989;50.426;15.352;2023-10-19T12:04:47;21.80;;;17.73;;
77798;SDS011;66989;50.426;15.352;2023-10-19T12:07:12;21.97;;;15.00;;
77798;SDS011;66989;50.426;15.352;2023-10-19T12:09:38;21.05;;;15.32;;
77798;SDS011;66989;50.426;15.352;2023-10-19T12:12:07;21.30;;;14.23;;
77798;SDS011;66989;50.426;15.352;2023-10-19T12:14:34;20.77;;;14.25;;
77798;SDS011;66989;50.426;15.352;2023-10-19T12:17:00;19.67;;;14.27;;
77798;SDS011;66989;50.426;15.352;2023-10-19T12:19:27;18.08;;;14.05;;
77798;SDS011;66989;50.426;15.352;2023-10-19T12:21:54;18.02;;;13.68;;
77798;SDS011;66989;50.426;15.352;2023-10-19T12:24:20;18.73;;;14.10;;
77798;SDS011;66989;50.426;15.352;2023-10-19T12:26:46;18.50;;;13.30;;
77798;SDS011;66989;50.426;15.352;2023-10-19T12:29:11;16.88;;;12.63;;
77798;SDS011;66989;50.426;15.352;2023-10-19T12:31:39;19.13;;;13.68;;
77798;SDS011;66989;50.426;15.352;2023-10-19T12:34:05;21.75;;;14.85;;
77798;SDS011;66989;50.426;15.352;2023-10-19T12:36:36;25.15;;;14.45;;
77798;SDS011;66989;50.426;15.352;2023-10-19T12:39:02;18.77;;;13.75;;
77798;SDS011;66989;50.426;15.352;2023-10-19T12:41:30;22.90;;;17.15;;
77798;SDS011;66989;50.426;15.352;2023-10-19T12:43:56;17.85;;;14.02;;
77798;SDS011;66989;50.426;15.352;2023-10-19T12:46:33;20.20;;;13.93;;
77798;SDS011;66989;50.426;15.352;2023-10-19T12:49:02;19.10;;;16.05;;
77798;SDS011;66989;50.426;15.352;2023-10-19T12:51:33;20.75;;;14.15;;
77798;SDS011;66989;50.426;15.352;2023-10-19T12:53:59;23.67;;;16.30;;
77798;SDS011;66989;50.426;15.352;2023-10-19T12:56:28;20.63;;;15.43;;
77798;SDS011;66989;50.426;15.352;2023-10-19T12:58:54;19.08;;;13.63;;
77798;SDS011;66989;50.426;15.352;2023-10-19T13:01:19;20.63;;;14.38;;
77798;SDS011;66989;50.426;15.352;2023-10-19T13:03:46;24.77;;;18.33;;
77798;SDS011;66989;50.426;15.352;2023-10-19T13:06:13;22.35;;;16.80;;
77798;SDS011;66989;50.426;15.352;2023-10-19T13:08:39;20.23;;;15.40;;
77798;SDS011;66989;50.426;15.352;2023-10-19T13:13:31;24.58;;;16.10;;
77798;SDS011;66989;50.426;15.352;2023-10-19T13:15:56;25.00;;;19.58;;
77798;SDS011;66989;50.426;15.352;2023-10-19T13:18:21;22.77;;;15.70;;
77798;SDS011;66989;50.426;15.352;2023-10-19T13:20:54;23.15;;;15.32;;
77798;SDS011;66989;50.426;15.352;2023-10-19T13:23:21;24.23;;;17.02;;
77798;SDS011;66989;50.426;15.352;2023-10-19T13:25:47;21.13;;;14.50;;
77798;SDS011;66989;50.426;15.352;2023-10-19T13:28:22;26.35;;;18.38;;
77798;SDS011;66989;50.426;15.352;2023-10-19T13:30:51;28.52;;;18.42;;
77798;SDS011;66989;50.426;15.352;2023-10-19T13:33:18;22.95;;;16.13;;
77798;SDS011;66989;50.426;15.352;2023-10-19T13:35:46;24.73;;;18.27;;
77798;SDS011;66989;50.426;15.352;2023-10-19T13:38:13;24.33;;;18.30;;
77798;SDS011;66989;50.426;15.352;2023-10-19T13:40:39;23.05;;;17.05;;
77798;SDS011;66989;50.426;15.352;2023-10-19T13:43:05;25.27;;;19.08;;
77798;SDS011;66989;50.426;15.352;2023-10-19T13:45:34;23.55;;;16.70;;
77798;SDS011;66989;50.426;15.352;2023-10-19T13:48:04;25.40;;;16.85;;
77798;SDS011;66989;50.426;15.352;2023-10-19T13:50:31;26.17;;;17.35;;
77798;SDS011;66989;50.426;15.352;2023-10-19T13:52:58;22.13;;;16.60;;
77798;SDS011;66989;50.426;15.352;2023-10-19T13:55:25;22.60;;;15.68;;
77798;SDS011;66989;50.426;15.352;2023-10-19T13:57:53;23.85;;;15.93;;
77798;SDS011;66989;50.426;15.352;2023-10-19T14:00:19;25.35;;;18.35;;
77798;SDS011;66989;50.426;15.352;2023-10-19T14:02:57;27.67;;;18.95;;
77798;SDS011;66989;50.426;15.352;2023-10-19T14:05:23;23.83;;;16.98;;
77798;SDS011;66989;50.426;15.352;2023-10-19T14:07:49;24.20;;;15.85;;
77798;SDS011;66989;50.426;15.352;2023-10-19T14:10:16;30.58;;;21.38;;
77798;SDS011;66989;50.426;15.352;2023-10-19T14:12:44;24.10;;;16.05;;
77798;SDS011;66989;50.426;15.352;2023-10-19T14:15:17;28.58;;;17.40;;
77798;SDS011;66989;50.426;15.352;2023-10-19T14:17:44;24.05;;;18.38;;
77798;SDS011;66989;50.426;15.352;2023-10-19T14:20:13;24.00;;;16.88;;
77798;SDS011;66989;50.426;15.352;2023-10-19T14:22:43;23.05;;;16.70;;
77798;SDS011;66989;50.426;15.352;2023-10-19T14:25:14;24.20;;;16.80;;
77798;SDS011;66989;50.426;15.352;2023-10-19T14:27:40;24.50;;;17.10;;
77798;SDS011;66989;50.426;15.352;2023-10-19T14:30:10;22.13;;;16.40;;
77798;SDS011;66989;50.426;15.352;2023-10-19T14:32:41;23.67;;;17.80;;
77798;SDS011;66989;50.426;15.352;2023-10-19T14:35:08;24.80;;;16.60;;
77798;SDS011;66989;50.426;15.352;2023-10-19T14:37:40;28.13;;;16.83;;
77798;SDS011;66989;50.426;15.352;2023-10-19T14:40:10;25.48;;;18.38;;
77798;SDS011;66989;50.426;15.352;2023-10-19T14:42:40;24.42;;;16.60;;
77798;SDS011;66989;50.426;15.352;2023-10-19T14:45:10;26.20;;;19.48;;
77798;SDS011;66989;50.426;15.352;2023-10-19T14:47:38;25.70;;;19.30;;
77798;SDS011;66989;50.426;15.352;2023-10-19T14:50:07;27.02;;;19.65;;
77798;SDS011;66989;50.426;15.352;2023-10-19T14:52:37;26.40;;;19.05;;
77798;SDS011;66989;50.426;15.352;2023-10-19T14:55:04;28.98;;;19.30;;
77798;SDS011;66989;50.426;15.352;2023-10-19T14:57:31;23.05;;;18.67;;